Hlavní strana
METAR-TAF:

METAR-TAF

Letiště :

Ropná věž

Ula, Norsko

zeměpisná šířka: 59-06-39N, zeměpisná délka: 2-50-45E, výška: 0 m

Aktuální stav počasí

Zpráva byla vytvořena před 28 minutami, v 16:50 UTC
Západojihozápadní vítr 13 kt
Teplota 7°C
Vlhkost vzduchu 100%
Tlak 1032 hPa
Viditelnost: 0350 m
mlha

METAR: ENLA 221650Z AUTO 24013KT 0350NDV FG NCD 07/07 Q1032 W///S4

Čas: 18:18 (17:18 UTC)


TAF: chybějící

Stav a předpovědi počasí z více než 4 000 letišť (zprávy METAR a TAF).

Červené a žluté tečky na mapě představují dostupné meteorologické stanice.

Když kurzor umístíte na tečku, zobrazí se název stanice.

Pak kliknutím zobrazíte stav a předpověď počasí.

Chcete-li změnit mapu, kliknutím na zelené tlačítko se znaménkem +mapu přiblížíte, kliknutím na zelené tlačítko se znaménkem – mapu oddálíte a kliknutím na zelené šipky přejdete na sousední mapy.


METAR-TAF: